createdAt,value
2022-08-05T00:01:28.585Z,14.00
2022-08-05T00:03:57.202Z,14.40
2022-08-05T00:06:32.252Z,15.80
2022-08-05T00:09:00.798Z,18.25
2022-08-05T00:11:34.633Z,15.75
2022-08-05T00:14:02.619Z,16.80
2022-08-05T00:16:52.699Z,15.75
2022-08-05T00:19:22.135Z,14.40
2022-08-05T00:21:49.091Z,15.00
2022-08-05T00:24:16.090Z,15.00
2022-08-05T00:26:51.668Z,16.60
2022-08-05T00:29:18.771Z,17.00
2022-08-05T00:32:10.668Z,14.20
2022-08-05T00:34:53.480Z,12.00
2022-08-05T00:37:21.681Z,14.50
2022-08-05T00:39:57.938Z,17.00
2022-08-05T00:42:40.021Z,17.00
2022-08-05T00:45:08.787Z,15.75
2022-08-05T00:47:57.246Z,15.00
2022-08-05T00:50:26.523Z,15.50
2022-08-05T00:52:55.061Z,16.00
2022-08-05T00:55:22.086Z,14.00
2022-08-05T00:57:55.355Z,13.75
2022-08-05T01:00:26.064Z,15.00
2022-08-05T01:02:53.053Z,13.50
2022-08-05T01:05:19.813Z,15.20
2022-08-05T01:08:30.646Z,17.20
2022-08-05T01:10:56.301Z,15.40
2022-08-05T01:13:57.824Z,16.75
2022-08-05T01:16:27.184Z,16.00
2022-08-05T01:18:58.373Z,17.00
2022-08-05T01:21:38.165Z,17.40
2022-08-05T01:24:23.503Z,17.00
2022-08-05T01:27:19.419Z,18.40
2022-08-05T01:29:50.172Z,16.75
2022-08-05T01:32:21.074Z,17.00
2022-08-05T01:34:51.062Z,20.60
2022-08-05T01:37:44.320Z,18.75
2022-08-05T01:40:12.607Z,18.00
2022-08-05T01:42:40.671Z,18.60
2022-08-05T01:45:08.275Z,18.40
2022-08-05T01:47:39.783Z,18.00
2022-08-05T01:50:16.074Z,21.00
2022-08-05T01:52:49.649Z,19.00
2022-08-05T01:55:18.021Z,16.50
2022-08-05T01:58:10.213Z,18.20
2022-08-05T02:00:35.453Z,18.40
2022-08-05T02:03:06.058Z,20.00
2022-08-05T02:05:35.995Z,19.20
2022-08-05T02:08:04.140Z,18.80
2022-08-05T02:10:46.448Z,20.60
2022-08-05T02:13:16.873Z,18.25
2022-08-05T02:15:45.229Z,18.20
2022-08-05T02:18:33.177Z,18.25
2022-08-05T02:21:22.587Z,20.00
2022-08-05T02:23:51.801Z,18.00
2022-08-05T02:26:26.499Z,21.00
2022-08-05T02:28:55.028Z,19.00
2022-08-05T02:31:28.352Z,21.00
2022-08-05T02:33:58.080Z,18.00
2022-08-05T02:36:27.487Z,17.60
2022-08-05T02:38:55.954Z,18.25
2022-08-05T02:41:29.017Z,17.80
2022-08-05T02:44:13.086Z,18.60
2022-08-05T02:46:53.179Z,21.00
2022-08-05T02:49:27.584Z,21.00
2022-08-05T02:52:05.740Z,18.50
2022-08-05T02:54:36.992Z,20.00
2022-08-05T02:57:10.346Z,14.60
2022-08-05T02:59:54.388Z,19.00
2022-08-05T03:02:23.028Z,19.00
2022-08-05T03:04:53.101Z,19.00
2022-08-05T03:07:40.337Z,18.60
2022-08-05T03:10:07.696Z,19.00
2022-08-05T03:12:36.466Z,14.80
2022-08-05T03:15:04.461Z,18.25
2022-08-05T03:17:33.633Z,18.00
2022-08-05T03:20:08.809Z,20.50
2022-08-05T03:22:36.819Z,18.75
2022-08-05T03:25:34.054Z,21.40
2022-08-05T03:27:59.074Z,18.00
2022-08-05T03:30:30.294Z,16.00
2022-08-05T03:33:01.993Z,18.00
2022-08-05T03:35:29.185Z,17.60
2022-08-05T03:38:00.879Z,23.25
2022-08-05T03:40:31.998Z,20.60
2022-08-05T03:42:59.179Z,22.00
2022-08-05T03:45:28.335Z,20.00
2022-08-05T03:47:56.817Z,19.50
2022-08-05T03:50:24.070Z,20.50
2022-08-05T03:54:59.166Z,19.00
2022-08-05T03:56:10.463Z,19.00
2022-08-05T03:58:41.184Z,18.75
2022-08-05T04:01:08.754Z,20.80
2022-08-05T04:03:38.982Z,18.25
2022-08-05T04:06:08.760Z,20.40
2022-08-05T04:08:37.060Z,21.00
2022-08-05T04:11:08.472Z,17.80
2022-08-05T04:13:50.900Z,19.00
2022-08-05T04:16:24.143Z,19.80
2022-08-05T04:18:54.515Z,18.25
2022-08-05T04:22:08.505Z,21.50
2022-08-05T04:24:18.633Z,17.60
2022-08-05T04:26:46.831Z,19.60
2022-08-05T04:29:13.460Z,18.25
2022-08-05T04:31:41.228Z,19.00
2022-08-05T04:34:31.434Z,15.00
2022-08-05T04:36:56.120Z,18.00
2022-08-05T04:39:22.927Z,17.40
2022-08-05T04:41:51.179Z,18.00
2022-08-05T04:44:29.048Z,21.25
2022-08-05T04:46:58.430Z,17.00
2022-08-05T04:49:38.608Z,17.00
2022-08-05T04:52:12.144Z,16.50
2022-08-05T04:54:38.748Z,19.80
2022-08-05T04:57:05.459Z,16.75
2022-08-05T04:59:38.528Z,17.60
2022-08-05T05:02:36.408Z,18.00
2022-08-05T05:04:52.799Z,15.00
2022-08-05T05:07:29.378Z,17.00
2022-08-05T05:09:58.681Z,15.00
2022-08-05T05:12:29.341Z,18.00
2022-08-05T05:14:56.147Z,13.00
2022-08-05T05:17:24.564Z,15.25
2022-08-05T05:19:56.649Z,13.40
2022-08-05T05:22:26.468Z,13.00
2022-08-05T05:24:59.979Z,14.40
2022-08-05T05:27:44.730Z,15.00
2022-08-05T05:30:29.508Z,13.00
2022-08-05T05:33:08.878Z,14.75
2022-08-05T05:35:43.210Z,14.00
2022-08-05T05:38:12.853Z,15.20
2022-08-05T05:40:43.765Z,11.00
2022-08-05T05:43:14.635Z,12.60
2022-08-05T05:45:49.335Z,11.00
2022-08-05T05:48:16.272Z,13.00
2022-08-05T05:50:44.293Z,9.75
2022-08-05T05:53:21.362Z,12.00
2022-08-05T05:55:52.236Z,14.50
2022-08-05T05:58:31.530Z,13.20
2022-08-05T06:01:12.480Z,13.00
2022-08-05T06:04:00.996Z,13.00
2022-08-05T06:06:28.120Z,11.20
2022-08-05T06:08:57.949Z,11.00
2022-08-05T06:11:24.666Z,12.40
2022-08-05T06:13:54.094Z,12.00
2022-08-05T06:16:29.806Z,12.00
2022-08-05T06:19:00.968Z,11.40
2022-08-05T06:21:36.898Z,13.00
2022-08-05T06:24:12.374Z,13.00
2022-08-05T06:26:45.872Z,10.50
2022-08-05T06:29:25.490Z,12.50
2022-08-05T06:32:06.189Z,11.25
2022-08-05T06:34:48.361Z,11.60
2022-08-05T06:37:56.389Z,12.00
2022-08-05T06:40:07.203Z,11.75
2022-08-05T06:42:33.805Z,12.60
2022-08-05T06:45:00.426Z,10.00
2022-08-05T06:48:36.868Z,12.00
2022-08-05T06:50:19.044Z,11.60
2022-08-05T06:52:58.570Z,11.50
2022-08-05T06:55:25.685Z,9.75
2022-08-05T06:57:57.615Z,11.40
2022-08-05T07:00:38.094Z,12.00
2022-08-05T07:03:09.774Z,10.60
2022-08-05T07:05:37.840Z,12.00
2022-08-05T07:08:10.745Z,9.25
2022-08-05T07:10:38.022Z,9.50
2022-08-05T07:13:39.475Z,12.00
2022-08-05T07:17:59.466Z,10.00
2022-08-05T07:19:31.807Z,11.00
2022-08-05T07:22:02.634Z,11.00
2022-08-05T07:24:29.964Z,10.00
2022-08-05T07:26:56.617Z,9.50
2022-08-05T07:29:25.327Z,7.60
2022-08-05T07:32:12.233Z,8.50
2022-08-05T07:34:42.400Z,8.50
2022-08-05T07:37:11.756Z,8.00
2022-08-05T07:40:25.890Z,8.60
2022-08-05T07:42:31.804Z,9.50
2022-08-05T07:45:01.147Z,9.60
2022-08-05T07:47:27.751Z,8.25
2022-08-05T07:50:09.580Z,9.00
2022-08-05T07:52:40.035Z,8.20
2022-08-05T07:55:15.998Z,7.25
2022-08-05T07:58:02.160Z,8.50
2022-08-05T08:00:29.854Z,9.75
2022-08-05T08:03:14.322Z,7.80
2022-08-05T08:05:49.802Z,7.75
2022-08-05T08:08:19.770Z,9.00
2022-08-05T08:10:48.815Z,10.00
2022-08-05T08:13:21.879Z,8.00
2022-08-05T08:16:34.875Z,8.25
2022-08-05T08:18:42.560Z,8.60
2022-08-05T08:21:17.647Z,8.00
2022-08-05T08:24:02.013Z,10.00
2022-08-05T08:26:31.613Z,9.80
2022-08-05T08:29:21.578Z,9.00
2022-08-05T08:31:48.745Z,9.60
2022-08-05T08:34:15.925Z,8.00
2022-08-05T08:36:50.468Z,9.00
2022-08-05T08:39:18.497Z,11.00
2022-08-05T08:41:51.398Z,9.00
2022-08-05T08:45:20.485Z,9.25
2022-08-05T08:47:47.285Z,9.25
2022-08-05T08:50:30.604Z,10.67
2022-08-05T08:53:12.137Z,8.50
2022-08-05T08:56:05.335Z,10.40
2022-08-05T08:58:43.370Z,10.40
2022-08-05T09:01:16.280Z,10.25
2022-08-05T09:03:45.791Z,11.00
2022-08-05T09:06:15.825Z,10.40
2022-08-05T09:08:46.835Z,11.60
2022-08-05T09:11:14.936Z,9.00
2022-08-05T09:14:10.232Z,9.00
2022-08-05T09:16:29.739Z,9.00
2022-08-05T09:18:56.436Z,10.00
2022-08-05T09:22:21.747Z,9.40
2022-08-05T09:24:15.498Z,8.00
2022-08-05T09:26:46.399Z,9.00
2022-08-05T09:29:19.106Z,8.00
2022-08-05T09:32:42.253Z,10.00
2022-08-05T09:34:55.930Z,10.00
2022-08-05T09:38:17.389Z,9.40
2022-08-05T09:40:28.903Z,9.40
2022-08-05T09:42:55.592Z,8.00
2022-08-05T09:46:06.672Z,8.25
2022-08-05T09:48:26.934Z,8.00
2022-08-05T09:50:56.845Z,9.50
2022-08-05T09:53:53.173Z,9.00
2022-08-05T09:56:12.988Z,8.80
2022-08-05T09:58:42.061Z,8.00
2022-08-05T10:01:15.240Z,10.00
2022-08-05T10:04:00.746Z,8.00
2022-08-05T10:06:28.387Z,8.20
2022-08-05T10:08:55.753Z,10.00
2022-08-05T10:11:22.908Z,9.00
2022-08-05T10:13:49.724Z,9.00
2022-08-05T10:16:32.240Z,10.00
2022-08-05T10:19:01.318Z,10.00
2022-08-05T10:21:40.297Z,9.25
2022-08-05T10:24:10.895Z,9.00
2022-08-05T10:26:51.823Z,8.40
2022-08-05T10:29:23.576Z,8.00
2022-08-05T10:32:53.915Z,8.00
2022-08-05T10:34:55.712Z,8.00
2022-08-05T10:37:37.282Z,7.50
2022-08-05T10:40:34.902Z,8.00
2022-08-05T10:43:30.816Z,9.50
2022-08-05T10:46:07.564Z,9.00
2022-08-05T10:48:52.386Z,9.00
2022-08-05T10:51:23.200Z,9.00
2022-08-05T10:53:58.264Z,10.00
2022-08-05T10:56:36.756Z,7.00
2022-08-05T10:59:12.117Z,8.00
2022-08-05T11:02:06.851Z,7.00
2022-08-05T11:04:44.232Z,10.00
2022-08-05T11:07:16.314Z,8.60
2022-08-05T11:09:46.237Z,10.80
2022-08-05T11:12:32.362Z,10.00
2022-08-05T11:15:19.733Z,7.60
2022-08-05T11:18:00.118Z,10.67
2022-08-05T11:20:43.810Z,7.80
2022-08-05T11:23:33.280Z,9.40
2022-08-05T11:26:27.784Z,8.00
2022-08-05T11:28:56.338Z,7.00
2022-08-05T11:31:56.968Z,7.00
2022-08-05T11:34:15.128Z,7.25
2022-08-05T11:36:47.495Z,7.00
2022-08-05T11:39:38.955Z,9.00
2022-08-05T11:42:06.733Z,7.80
2022-08-05T11:44:52.820Z,8.00
2022-08-05T11:47:22.060Z,9.00
2022-08-05T11:50:08.514Z,8.00
2022-08-05T11:52:35.171Z,9.00
2022-08-05T11:55:07.443Z,9.50
2022-08-05T11:58:08.186Z,11.00
2022-08-05T12:00:28.907Z,9.00
2022-08-05T12:02:56.890Z,10.00
2022-08-05T12:05:36.213Z,7.50
2022-08-05T12:08:09.800Z,8.00
2022-08-05T12:10:43.601Z,10.00
2022-08-05T12:13:15.578Z,11.00
2022-08-05T12:15:44.473Z,11.00
2022-08-05T12:18:12.340Z,9.40
2022-08-05T12:20:39.405Z,10.20
2022-08-05T12:23:08.011Z,9.60
2022-08-05T12:25:48.864Z,13.00
2022-08-05T12:28:30.950Z,11.80
2022-08-05T12:31:02.466Z,11.00
2022-08-05T12:33:36.729Z,9.00
2022-08-05T12:36:09.327Z,11.00
2022-08-05T12:38:37.398Z,10.50
2022-08-05T12:41:10.938Z,10.50
2022-08-05T12:43:51.551Z,9.50
2022-08-05T12:46:28.979Z,10.40
2022-08-05T12:49:00.265Z,7.60
2022-08-05T12:52:12.981Z,14.00
2022-08-05T12:54:23.699Z,11.00
2022-08-05T12:56:56.063Z,10.80
2022-08-05T12:59:27.430Z,10.00
2022-08-05T13:02:10.885Z,11.00
2022-08-05T13:04:41.888Z,10.20
2022-08-05T13:07:47.798Z,11.00
2022-08-05T13:10:13.573Z,9.00
2022-08-05T13:12:42.681Z,12.25
2022-08-05T13:15:24.350Z,11.60
2022-08-05T13:18:02.797Z,10.40
2022-08-05T13:20:35.711Z,11.00
2022-08-05T13:23:07.529Z,10.33
2022-08-05T13:25:52.388Z,11.00
2022-08-05T13:28:22.288Z,11.00
2022-08-05T13:30:51.112Z,11.00
2022-08-05T13:34:23.515Z,10.00
2022-08-05T13:36:06.579Z,11.00
2022-08-05T13:38:38.183Z,12.00
2022-08-05T13:41:09.407Z,11.40
2022-08-05T13:43:44.791Z,12.00
2022-08-05T13:46:43.790Z,12.00
2022-08-05T13:49:10.034Z,10.00
2022-08-05T13:51:41.225Z,10.00
2022-08-05T13:54:15.040Z,12.00
2022-08-05T13:56:44.923Z,9.40
2022-08-05T13:59:20.263Z,11.60
2022-08-05T14:01:57.673Z,9.50
2022-08-05T14:04:43.439Z,10.00
2022-08-05T14:07:25.578Z,9.75
2022-08-05T14:10:04.024Z,8.60
2022-08-05T14:12:32.090Z,12.40
2022-08-05T14:14:59.759Z,9.80
2022-08-05T14:17:28.189Z,10.00
2022-08-05T14:20:00.912Z,12.50
2022-08-05T14:22:34.306Z,8.40
2022-08-05T14:25:01.541Z,9.00
2022-08-05T14:27:28.257Z,9.00
2022-08-05T14:29:55.113Z,9.00
2022-08-05T14:32:27.034Z,8.00
2022-08-05T14:34:56.745Z,9.80
2022-08-05T14:37:45.260Z,9.00
2022-08-05T14:40:14.012Z,9.20
2022-08-05T14:42:43.703Z,9.25
2022-08-05T14:45:10.677Z,7.00
2022-08-05T14:48:05.525Z,9.00
2022-08-05T14:50:25.290Z,7.00
2022-08-05T14:52:57.808Z,9.00
2022-08-05T14:55:38.407Z,10.00
2022-08-05T14:58:11.335Z,9.40
2022-08-05T15:00:39.760Z,8.40
2022-08-05T15:03:26.812Z,9.00
2022-08-05T15:06:06.902Z,8.75
2022-08-05T15:09:01.059Z,8.00
2022-08-05T15:11:52.959Z,9.00
2022-08-05T15:14:33.964Z,10.60
2022-08-05T15:17:01.758Z,7.50
2022-08-05T15:19:30.750Z,7.20
2022-08-05T15:21:59.952Z,8.40
2022-08-05T15:24:27.451Z,10.00
2022-08-05T15:26:54.058Z,7.40
2022-08-05T15:29:22.815Z,6.50
2022-08-05T15:31:52.758Z,9.00
2022-08-05T15:34:33.225Z,8.00
2022-08-05T15:37:04.892Z,9.40
2022-08-05T15:41:04.794Z,9.00
2022-08-05T15:42:54.337Z,8.00
2022-08-05T15:45:07.531Z,9.00
2022-08-05T15:47:36.661Z,6.80
2022-08-05T15:50:03.866Z,9.00
2022-08-05T15:52:54.760Z,7.00
2022-08-05T15:55:24.725Z,7.00
2022-08-05T15:57:51.934Z,6.00
2022-08-05T16:00:32.572Z,9.00
2022-08-05T16:03:05.717Z,9.00
2022-08-05T16:05:32.382Z,7.25
2022-08-05T16:07:59.106Z,8.40
2022-08-05T16:10:27.064Z,10.00
2022-08-05T16:12:56.140Z,11.00
2022-08-05T16:15:23.087Z,8.80
2022-08-05T16:17:57.820Z,10.25
2022-08-05T16:20:25.372Z,11.00
2022-08-05T16:22:52.051Z,11.20
2022-08-05T16:25:18.655Z,12.00
2022-08-05T16:28:00.340Z,10.00
2022-08-05T16:30:32.441Z,11.00
2022-08-05T16:32:59.824Z,11.00
2022-08-05T16:35:28.514Z,13.00
2022-08-05T16:38:03.733Z,11.00
2022-08-05T16:40:47.658Z,11.00
2022-08-05T16:43:19.025Z,12.00
2022-08-05T16:46:04.464Z,11.00
2022-08-05T16:48:33.993Z,11.60
2022-08-05T16:51:02.174Z,13.20
2022-08-05T16:53:32.453Z,14.00
2022-08-05T16:56:17.415Z,14.80
2022-08-05T16:58:44.096Z,16.50
2022-08-05T17:01:11.183Z,17.75
2022-08-05T17:03:38.092Z,15.00
2022-08-05T17:06:05.786Z,17.20
2022-08-05T17:08:51.873Z,14.25
2022-08-05T17:11:20.574Z,14.00
2022-08-05T17:13:50.680Z,16.50
2022-08-05T17:16:32.842Z,15.00
2022-08-05T17:19:00.758Z,18.75
2022-08-05T17:21:35.542Z,16.40
2022-08-05T17:24:14.378Z,17.00
2022-08-05T17:26:50.159Z,16.00
2022-08-05T17:29:17.367Z,15.50
2022-08-05T17:31:58.412Z,14.00
2022-08-05T17:34:29.869Z,13.60
2022-08-05T17:36:59.541Z,13.60
2022-08-05T17:39:34.210Z,16.00
2022-08-05T17:42:17.296Z,13.00
2022-08-05T17:44:50.066Z,13.00
2022-08-05T17:47:22.310Z,15.00
2022-08-05T17:49:51.537Z,12.20
2022-08-05T17:52:27.511Z,13.60
2022-08-05T17:54:54.293Z,13.00
2022-08-05T17:57:22.087Z,14.20
2022-08-05T17:59:59.791Z,13.00
2022-08-05T18:02:31.734Z,13.40
2022-08-05T18:04:58.977Z,14.50
2022-08-05T18:07:32.761Z,13.00
2022-08-05T18:10:10.422Z,14.50
2022-08-05T18:12:37.511Z,11.20
2022-08-05T18:15:04.971Z,12.20
2022-08-05T18:17:59.067Z,13.25
2022-08-05T18:20:29.220Z,12.40
2022-08-05T18:22:58.647Z,14.20
2022-08-05T18:25:33.067Z,16.80
2022-08-05T18:28:01.720Z,13.00
2022-08-05T18:30:32.424Z,14.40
2022-08-05T18:33:00.256Z,12.80
2022-08-05T18:35:59.738Z,12.00
2022-08-05T18:38:16.497Z,13.00
2022-08-05T18:41:53.847Z,15.00
2022-08-05T18:43:38.381Z,17.00
2022-08-05T18:46:09.975Z,12.75
2022-08-05T18:48:41.441Z,15.00
2022-08-05T18:52:06.257Z,16.00
2022-08-05T18:54:13.825Z,17.20
2022-08-05T18:56:40.580Z,13.60
2022-08-05T18:59:43.183Z,16.33
2022-08-05T19:01:57.967Z,17.80
2022-08-05T19:04:25.164Z,14.60
2022-08-05T19:06:53.560Z,15.00
2022-08-05T19:09:21.202Z,16.60
2022-08-05T19:12:01.100Z,14.80
2022-08-05T19:14:37.930Z,19.00
2022-08-05T19:17:15.951Z,16.75
2022-08-05T19:19:46.803Z,17.00
2022-08-05T19:22:17.238Z,14.80
2022-08-05T19:24:54.325Z,17.00
2022-08-05T19:27:23.449Z,15.00
2022-08-05T19:29:50.292Z,14.00
2022-08-05T19:32:17.416Z,14.00
2022-08-05T19:34:55.175Z,17.50
2022-08-05T19:37:22.714Z,16.00
2022-08-05T19:40:02.000Z,15.00
2022-08-05T19:42:36.076Z,15.40
2022-08-05T19:45:05.961Z,16.00
2022-08-05T19:47:33.033Z,14.00
2022-08-05T19:50:01.202Z,17.60
2022-08-05T19:52:30.728Z,15.00
2022-08-05T19:54:57.931Z,17.40
2022-08-05T19:57:49.070Z,15.20
2022-08-05T20:00:14.049Z,17.00
2022-08-05T20:02:40.704Z,17.00
2022-08-05T20:05:09.673Z,18.80
2022-08-05T20:07:46.722Z,17.00
2022-08-05T20:10:15.640Z,17.00
2022-08-05T20:12:47.910Z,15.20
2022-08-05T20:15:47.727Z,17.00
2022-08-05T20:18:10.750Z,18.80
2022-08-05T20:20:51.060Z,15.50
2022-08-05T20:23:17.705Z,16.00
2022-08-05T20:25:47.587Z,17.00
2022-08-05T20:28:15.864Z,16.00
2022-08-05T20:30:42.476Z,16.75
2022-08-05T20:33:09.170Z,15.50
2022-08-05T20:35:40.292Z,17.25
2022-08-05T20:38:20.158Z,15.00
2022-08-05T20:40:53.385Z,14.50
2022-08-05T20:43:57.631Z,16.40
2022-08-05T20:46:10.347Z,17.00
2022-08-05T20:48:45.018Z,17.80
2022-08-05T20:51:17.661Z,15.00
2022-08-05T20:53:44.294Z,17.80
2022-08-05T20:56:28.107Z,20.20
2022-08-05T20:59:00.080Z,20.00
2022-08-05T21:01:42.657Z,16.60
2022-08-05T21:04:12.587Z,17.25
2022-08-05T21:06:45.159Z,18.80
2022-08-05T21:09:14.321Z,18.00
2022-08-05T21:12:09.933Z,18.00
2022-08-05T21:14:29.273Z,18.50
2022-08-05T21:17:01.638Z,18.00
2022-08-05T21:19:29.755Z,18.00
2022-08-05T21:22:14.472Z,19.25
2022-08-05T21:24:41.558Z,17.75
2022-08-05T21:27:09.276Z,21.00
2022-08-05T21:29:40.749Z,21.00
2022-08-05T21:32:07.731Z,18.60
2022-08-05T21:34:35.407Z,16.20
2022-08-05T21:37:02.524Z,21.25
2022-08-05T21:39:29.311Z,18.75
2022-08-05T21:42:01.498Z,21.50
2022-08-05T21:44:29.121Z,21.75
2022-08-05T21:46:58.346Z,19.80
2022-08-05T21:49:48.553Z,22.00
2022-08-05T21:52:21.971Z,23.00
2022-08-05T21:54:55.323Z,18.00
2022-08-05T21:57:31.474Z,18.60
2022-08-05T22:00:06.169Z,19.00
2022-08-05T22:02:33.696Z,16.75
2022-08-05T22:05:00.298Z,20.00
2022-08-05T22:07:40.293Z,17.00
2022-08-05T22:10:14.527Z,13.60
2022-08-05T22:12:45.038Z,13.80
2022-08-05T22:16:01.098Z,12.75
2022-08-05T22:18:04.780Z,12.00
2022-08-05T22:20:31.453Z,11.40
2022-08-05T22:23:21.420Z,12.00
2022-08-05T22:26:10.592Z,11.00
2022-08-05T22:28:38.217Z,10.60
2022-08-05T22:31:08.050Z,12.00
2022-08-05T22:33:57.573Z,9.50
2022-08-05T22:36:24.729Z,10.00
2022-08-05T22:38:51.550Z,8.00
2022-08-05T22:42:04.579Z,9.20
2022-08-05T22:44:08.364Z,8.00
2022-08-05T22:46:40.123Z,5.50
2022-08-05T22:49:23.192Z,6.80
2022-08-05T22:52:04.740Z,9.00
2022-08-05T22:54:33.406Z,6.50
2022-08-05T22:57:00.092Z,6.00
2022-08-05T22:59:44.223Z,6.00
2022-08-05T23:02:13.870Z,8.00
2022-08-05T23:04:43.941Z,5.20
2022-08-05T23:07:19.106Z,6.00
2022-08-05T23:09:57.493Z,5.80
2022-08-05T23:12:29.038Z,6.00
2022-08-05T23:14:59.632Z,4.00
2022-08-05T23:17:34.918Z,4.40
2022-08-05T23:20:05.535Z,6.00
2022-08-05T23:22:37.027Z,6.00
2022-08-05T23:25:04.150Z,6.00
2022-08-05T23:27:42.528Z,5.75
2022-08-05T23:30:21.508Z,7.00
2022-08-05T23:32:53.943Z,6.00
2022-08-05T23:35:20.605Z,7.00
2022-08-05T23:37:48.165Z,6.00
2022-08-05T23:40:15.013Z,8.40
2022-08-05T23:42:41.761Z,4.40
2022-08-05T23:45:15.911Z,5.00
2022-08-05T23:47:47.555Z,6.00
2022-08-05T23:50:14.671Z,6.00
2022-08-05T23:52:49.667Z,7.60
2022-08-05T23:55:18.030Z,5.80
2022-08-05T23:57:44.686Z,8.00
